sensor_id;sensor_type;location;lat;lon;timestamp;pressure;altitude;pressure_sealevel;temperature
54306;BMP280;64314;45.188;5.712;2022-11-20T00:00:54;99091.31;;;19.47
54306;BMP280;64314;45.188;5.712;2022-11-20T00:03:20;99103.13;;;19.48
54306;BMP280;64314;45.188;5.712;2022-11-20T00:05:45;99100.34;;;19.48
54306;BMP280;64314;45.188;5.712;2022-11-20T00:08:11;99103.84;;;19.48
54306;BMP280;64314;45.188;5.712;2022-11-20T00:10:37;99101.09;;;19.48
54306;BMP280;64314;45.188;5.712;2022-11-20T00:13:04;99104.41;;;19.47
54306;BMP280;64314;45.188;5.712;2022-11-20T00:15:29;99102.25;;;19.45
54306;BMP280;64314;45.188;5.712;2022-11-20T00:17:55;99102.97;;;19.46
54306;BMP280;64314;45.188;5.712;2022-11-20T00:20:20;99109.09;;;19.44
54306;BMP280;64314;45.188;5.712;2022-11-20T00:22:46;99111.84;;;19.44
54306;BMP280;64314;45.188;5.712;2022-11-20T00:25:12;99104.84;;;19.43
54306;BMP280;64314;45.188;5.712;2022-11-20T00:27:38;99109.66;;;19.43
54306;BMP280;64314;45.188;5.712;2022-11-20T00:30:04;99115.19;;;19.43
54306;BMP280;64314;45.188;5.712;2022-11-20T00:32:30;99116.50;;;19.42
54306;BMP280;64314;45.188;5.712;2022-11-20T00:34:55;99116.38;;;19.40
54306;BMP280;64314;45.188;5.712;2022-11-20T00:37:21;99113.44;;;19.38
54306;BMP280;64314;45.188;5.712;2022-11-20T00:39:46;99115.63;;;19.39
54306;BMP280;64314;45.188;5.712;2022-11-20T00:42:12;99128.75;;;19.39
54306;BMP280;64314;45.188;5.712;2022-11-20T00:44:37;99115.63;;;19.39
54306;BMP280;64314;45.188;5.712;2022-11-20T00:47:02;99114.94;;;19.39
54306;BMP280;64314;45.188;5.712;2022-11-20T00:49:28;99116.38;;;19.40
54306;BMP280;64314;45.188;5.712;2022-11-20T00:51:53;99121.59;;;19.36
54306;BMP280;64314;45.188;5.712;2022-11-20T00:54:19;99125.38;;;19.40
54306;BMP280;64314;45.188;5.712;2022-11-20T00:56:44;99128.00;;;19.38
54306;BMP280;64314;45.188;5.712;2022-11-20T00:59:09;99127.28;;;19.38
54306;BMP280;64314;45.188;5.712;2022-11-20T01:01:36;99128.56;;;19.37
54306;BMP280;64314;45.188;5.712;2022-11-20T01:04:02;99130.03;;;19.38
54306;BMP280;64314;45.188;5.712;2022-11-20T01:06:33;99136.31;;;19.38
54306;BMP280;64314;45.188;5.712;2022-11-20T01:09:02;99133.25;;;19.44
54306;BMP280;64314;45.188;5.712;2022-11-20T01:11:34;99140.50;;;19.49
54306;BMP280;64314;45.188;5.712;2022-11-20T01:14:02;99137.31;;;19.53
54306;BMP280;64314;45.188;5.712;2022-11-20T01:16:32;99137.44;;;19.55
54306;BMP280;64314;45.188;5.712;2022-11-20T01:19:00;99145.19;;;19.56
54306;BMP280;64314;45.188;5.712;2022-11-20T01:21:32;99153.59;;;19.58
54306;BMP280;64314;45.188;5.712;2022-11-20T01:23:58;99155.06;;;19.59
54306;BMP280;64314;45.188;5.712;2022-11-20T01:26:26;99161.31;;;19.60
54306;BMP280;64314;45.188;5.712;2022-11-20T01:28:54;99152.88;;;19.58
54306;BMP280;64314;45.188;5.712;2022-11-20T01:31:23;99157.69;;;19.57
54306;BMP280;64314;45.188;5.712;2022-11-20T01:33:51;99162.63;;;19.59
54306;BMP280;64314;45.188;5.712;2022-11-20T01:36:18;99164.66;;;19.58
54306;BMP280;64314;45.188;5.712;2022-11-20T01:38:44;99168.00;;;19.57
54306;BMP280;64314;45.188;5.712;2022-11-20T01:41:11;99163.22;;;19.57
54306;BMP280;64314;45.188;5.712;2022-11-20T01:43:58;99158.84;;;19.54
54306;BMP280;64314;45.188;5.712;2022-11-20T01:46:23;99152.00;;;19.55
54306;BMP280;64314;45.188;5.712;2022-11-20T01:49:11;99167.31;;;19.56
54306;BMP280;64314;45.188;5.712;2022-11-20T01:51:41;99167.13;;;19.54
54306;BMP280;64314;45.188;5.712;2022-11-20T01:54:13;99160.31;;;19.55
54306;BMP280;64314;45.188;5.712;2022-11-20T01:56:42;99157.38;;;19.53
54306;BMP280;64314;45.188;5.712;2022-11-20T01:59:10;99161.47;;;19.52
54306;BMP280;64314;45.188;5.712;2022-11-20T02:01:37;99160.88;;;19.53
54306;BMP280;64314;45.188;5.712;2022-11-20T02:04:05;99164.38;;;19.54
54306;BMP280;64314;45.188;5.712;2022-11-20T02:06:37;99160.16;;;19.53
54306;BMP280;64314;45.188;5.712;2022-11-20T02:09:04;99160.16;;;19.53
54306;BMP280;64314;45.188;5.712;2022-11-20T02:11:30;99173.41;;;19.55
54306;BMP280;64314;45.188;5.712;2022-11-20T02:13:57;99168.47;;;19.53
54306;BMP280;64314;45.188;5.712;2022-11-20T02:16:30;99161.94;;;19.48
54306;BMP280;64314;45.188;5.712;2022-11-20T02:18:58;99170.34;;;19.50
54306;BMP280;64314;45.188;5.712;2022-11-20T02:21:33;99169.03;;;19.52
54306;BMP280;64314;45.188;5.712;2022-11-20T02:24:04;99166.84;;;19.50
54306;BMP280;64314;45.188;5.712;2022-11-20T02:26:34;99172.38;;;19.50
54306;BMP280;64314;45.188;5.712;2022-11-20T02:29:01;99162.34;;;19.45
54306;BMP280;64314;45.188;5.712;2022-11-20T02:31:27;99161.03;;;19.46
54306;BMP280;64314;45.188;5.712;2022-11-20T02:33:56;99162.78;;;19.51
54306;BMP280;64314;45.188;5.712;2022-11-20T02:36:23;99160.00;;;19.51
54306;BMP280;64314;45.188;5.712;2022-11-20T02:38:51;99162.78;;;19.51
54306;BMP280;64314;45.188;5.712;2022-11-20T02:41:17;99164.97;;;19.53
54306;BMP280;64314;45.188;5.712;2022-11-20T02:43:43;99169.03;;;19.52
54306;BMP280;64314;45.188;5.712;2022-11-20T02:46:08;99169.59;;;19.50
54306;BMP280;64314;45.188;5.712;2022-11-20T02:48:35;99165.53;;;19.51
54306;BMP280;64314;45.188;5.712;2022-11-20T02:51:03;99166.00;;;19.47
54306;BMP280;64314;45.188;5.712;2022-11-20T02:53:28;99159.88;;;19.49
54306;BMP280;64314;45.188;5.712;2022-11-20T02:55:54;99164.81;;;19.50
54306;BMP280;64314;45.188;5.712;2022-11-20T02:58:19;99166.84;;;19.50
54306;BMP280;64314;45.188;5.712;2022-11-20T03:00:45;99163.66;;;19.44
54306;BMP280;64314;45.188;5.712;2022-11-20T03:03:10;99164.81;;;19.50
54306;BMP280;64314;45.188;5.712;2022-11-20T03:05:35;99159.16;;;19.48
54306;BMP280;64314;45.188;5.712;2022-11-20T03:08:01;99171.06;;;19.51
54306;BMP280;64314;45.188;5.712;2022-11-20T03:10:26;99159.00;;;19.46
54306;BMP280;64314;45.188;5.712;2022-11-20T03:12:55;99161.31;;;19.50
54306;BMP280;64314;45.188;5.712;2022-11-20T03:15:24;99166.28;;;19.52
54306;BMP280;64314;45.188;5.712;2022-11-20T03:17:53;99168.31;;;19.51
54306;BMP280;64314;45.188;5.712;2022-11-20T03:20:19;99164.81;;;19.50
54306;BMP280;64314;45.188;5.712;2022-11-20T03:22:45;99163.50;;;19.52
54306;BMP280;64314;45.188;5.712;2022-11-20T03:25:10;99166.72;;;19.48
54306;BMP280;64314;45.188;5.712;2022-11-20T03:27:36;99174.56;;;19.52
54306;BMP280;64314;45.188;5.712;2022-11-20T03:30:01;99175.31;;;19.52
54306;BMP280;64314;45.188;5.712;2022-11-20T03:32:27;99182.13;;;19.51
54306;BMP280;64314;45.188;5.712;2022-11-20T03:34:52;99169.03;;;19.52
54306;BMP280;64314;45.188;5.712;2022-11-20T03:37:17;99181.59;;;19.53
54306;BMP280;64314;45.188;5.712;2022-11-20T03:39:43;99175.88;;;19.50
54306;BMP280;64314;45.188;5.712;2022-11-20T03:42:09;99175.44;;;19.54
54306;BMP280;64314;45.188;5.712;2022-11-20T03:44:54;99176.75;;;19.53
54306;BMP280;64314;45.188;5.712;2022-11-20T03:47:20;99174.00;;;19.53
54306;BMP280;64314;45.188;5.712;2022-11-20T03:49:45;99180.97;;;19.54
54306;BMP280;64314;45.188;5.712;2022-11-20T03:52:10;99183.00;;;19.53
54306;BMP280;64314;45.188;5.712;2022-11-20T03:54:36;99185.75;;;19.53
54306;BMP280;64314;45.188;5.712;2022-11-20T03:57:01;99183.59;;;19.52
54306;BMP280;64314;45.188;5.712;2022-11-20T03:59:27;99184.47;;;19.55
54306;BMP280;64314;45.188;5.712;2022-11-20T04:01:53;99187.38;;;19.57
54306;BMP280;64314;45.188;5.712;2022-11-20T04:04:19;99192.75;;;19.55
54306;BMP280;64314;45.188;5.712;2022-11-20T04:06:44;99194.06;;;19.53
54306;BMP280;64314;45.188;5.712;2022-11-20T04:09:09;99199.03;;;19.55
54306;BMP280;64314;45.188;5.712;2022-11-20T04:11:37;99212.13;;;19.55
54306;BMP280;64314;45.188;5.712;2022-11-20T04:14:11;99208.22;;;19.58
54306;BMP280;64314;45.188;5.712;2022-11-20T04:16:37;99196.13;;;19.53
54306;BMP280;64314;45.188;5.712;2022-11-20T04:19:05;99203.38;;;19.58
54306;BMP280;64314;45.188;5.712;2022-11-20T04:21:30;99207.47;;;19.57
54306;BMP280;64314;45.188;5.712;2022-11-20T04:23:56;99211.69;;;19.58
54306;BMP280;64314;45.188;5.712;2022-11-20T04:26:23;99217.78;;;19.57
54306;BMP280;64314;45.188;5.712;2022-11-20T04:28:49;99223.91;;;19.55
54306;BMP280;64314;45.188;5.712;2022-11-20T04:31:18;99228.88;;;19.57
54306;BMP280;64314;45.188;5.712;2022-11-20T04:33:44;99233.69;;;19.56
54306;BMP280;64314;45.188;5.712;2022-11-20T04:36:22;99222.63;;;19.56
54306;BMP280;64314;45.188;5.712;2022-11-20T04:38:52;99221.88;;;19.56
54306;BMP280;64314;45.188;5.712;2022-11-20T04:41:20;99228.88;;;19.57
54306;BMP280;64314;45.188;5.712;2022-11-20T04:43:50;99212.13;;;19.55
54306;BMP280;64314;45.188;5.712;2022-11-20T04:46:16;99223.34;;;19.57
54306;BMP280;64314;45.188;5.712;2022-11-20T04:48:42;99215.19;;;19.59
54306;BMP280;64314;45.188;5.712;2022-11-20T04:51:07;99221.44;;;19.59
54306;BMP280;64314;45.188;5.712;2022-11-20T04:53:33;99227.69;;;19.60
54306;BMP280;64314;45.188;5.712;2022-11-20T04:56:03;99230.34;;;19.58
54306;BMP280;64314;45.188;5.712;2022-11-20T04:58:30;99232.38;;;19.57
54306;BMP280;64314;45.188;5.712;2022-11-20T05:01:07;99231.03;;;19.58
54306;BMP280;64314;45.188;5.712;2022-11-20T05:03:32;99237.31;;;19.59
54306;BMP280;64314;45.188;5.712;2022-11-20T05:06:03;99236.56;;;19.58
54306;BMP280;64314;45.188;5.712;2022-11-20T05:08:29;99235.97;;;19.60
54306;BMP280;64314;45.188;5.712;2022-11-20T05:11:16;99230.34;;;19.58
54306;BMP280;64314;45.188;5.712;2022-11-20T05:13:42;99233.81;;;19.58
54306;BMP280;64314;45.188;5.712;2022-11-20T05:16:15;99233.97;;;19.60
54306;BMP280;64314;45.188;5.712;2022-11-20T05:18:41;99232.38;;;19.57
54306;BMP280;64314;45.188;5.712;2022-11-20T05:21:08;99240.81;;;19.59
54306;BMP280;64314;45.188;5.712;2022-11-20T05:23:34;99241.06;;;19.63
54306;BMP280;64314;45.188;5.712;2022-11-20T05:26:00;99239.03;;;19.64
54306;BMP280;64314;45.188;5.712;2022-11-20T05:28:27;99234.84;;;19.63
54306;BMP280;64314;45.188;5.712;2022-11-20T05:30:52;99239.03;;;19.64
54306;BMP280;64314;45.188;5.712;2022-11-20T05:33:18;99235.72;;;19.65
54306;BMP280;64314;45.188;5.712;2022-11-20T05:35:44;99232.78;;;19.63
54306;BMP280;64314;45.188;5.712;2022-11-20T05:38:10;99234.97;;;19.65
54306;BMP280;64314;45.188;5.712;2022-11-20T05:40:36;99240.50;;;19.65
54306;BMP280;64314;45.188;5.712;2022-11-20T05:43:02;99239.78;;;19.64
54306;BMP280;64314;45.188;5.712;2022-11-20T05:45:28;99239.78;;;19.64
54306;BMP280;64314;45.188;5.712;2022-11-20T05:47:53;99234.25;;;19.64
54306;BMP280;64314;45.188;5.712;2022-11-20T05:50:19;99235.72;;;19.65
54306;BMP280;64314;45.188;5.712;2022-11-20T05:52:44;99233.69;;;19.66
54306;BMP280;64314;45.188;5.712;2022-11-20T05:55:10;99233.81;;;19.68
54306;BMP280;64314;45.188;5.712;2022-11-20T05:57:35;99235.09;;;19.67
54306;BMP280;64314;45.188;5.712;2022-11-20T06:00:02;99230.31;;;19.67
54306;BMP280;64314;45.188;5.712;2022-11-20T06:02:28;99228.41;;;19.50
54306;BMP280;64314;45.188;5.712;2022-11-20T06:04:53;99228.59;;;19.53
54306;BMP280;64314;45.188;5.712;2022-11-20T06:07:18;99232.78;;;19.53
54306;BMP280;64314;45.188;5.712;2022-11-20T06:09:44;99229.44;;;19.55
54306;BMP280;64314;45.188;5.712;2022-11-20T06:12:09;99230.19;;;19.56
54306;BMP280;64314;45.188;5.712;2022-11-20T06:14:34;99232.38;;;19.57
54306;BMP280;64314;45.188;5.712;2022-11-20T06:17:00;99223.78;;;19.53
54306;BMP280;64314;45.188;5.712;2022-11-20T06:19:25;99230.00;;;19.53
54306;BMP280;64314;45.188;5.712;2022-11-20T06:21:51;99227.97;;;19.54
54306;BMP280;64314;45.188;5.712;2022-11-20T06:24:16;99229.31;;;19.53
54306;BMP280;64314;45.188;5.712;2022-11-20T06:26:42;99237.91;;;19.57
54306;BMP280;64314;45.188;5.712;2022-11-20T06:29:07;99239.22;;;19.56
54306;BMP280;64314;45.188;5.712;2022-11-20T06:31:33;99237.59;;;19.53
54306;BMP280;64314;45.188;5.712;2022-11-20T06:34:00;99240.38;;;19.53
54306;BMP280;64314;45.188;5.712;2022-11-20T06:36:26;99241.81;;;19.54
54306;BMP280;64314;45.188;5.712;2022-11-20T06:38:52;99249.81;;;19.50
54306;BMP280;64314;45.188;5.712;2022-11-20T06:41:20;99238.75;;;19.50
54306;BMP280;64314;45.188;5.712;2022-11-20T06:43:46;99236.16;;;19.52
54306;BMP280;64314;45.188;5.712;2022-11-20T06:46:12;99226.41;;;19.51
54306;BMP280;64314;45.188;5.712;2022-11-20T06:48:38;99238.19;;;19.52
54306;BMP280;64314;45.188;5.712;2022-11-20T06:51:05;99231.78;;;19.49
54306;BMP280;64314;45.188;5.712;2022-11-20T06:53:31;99250.72;;;19.53
54306;BMP280;64314;45.188;5.712;2022-11-20T06:55:57;99247.22;;;19.52
54306;BMP280;64314;45.188;5.712;2022-11-20T06:58:29;99249.25;;;19.52
54306;BMP280;64314;45.188;5.712;2022-11-20T07:00:59;99251.13;;;19.49
54306;BMP280;64314;45.188;5.712;2022-11-20T07:03:24;99259.03;;;19.53
54306;BMP280;64314;45.188;5.712;2022-11-20T07:05:50;99258.41;;;19.54
54306;BMP280;64314;45.188;5.712;2022-11-20T07:08:15;99256.97;;;19.53
54306;BMP280;64314;45.188;5.712;2022-11-20T07:10:40;99256.25;;;19.53
54306;BMP280;64314;45.188;5.712;2022-11-20T07:13:06;99261.59;;;19.50
54306;BMP280;64314;45.188;5.712;2022-11-20T07:15:32;99266.69;;;19.54
54306;BMP280;64314;45.188;5.712;2022-11-20T07:18:01;99261.06;;;19.52
54306;BMP280;64314;45.188;5.712;2022-11-20T07:20:27;99270.78;;;19.53
54306;BMP280;64314;45.188;5.712;2022-11-20T07:22:54;99259.03;;;19.53
54306;BMP280;64314;45.188;5.712;2022-11-20T07:25:20;99273.56;;;19.53
54306;BMP280;64314;45.188;5.712;2022-11-20T07:27:45;99279.09;;;19.53
54306;BMP280;64314;45.188;5.712;2022-11-20T07:30:11;99273.72;;;19.55
54306;BMP280;64314;45.188;5.712;2022-11-20T07:32:37;99276.63;;;19.57
54306;BMP280;64314;45.188;5.712;2022-11-20T07:35:02;99284.34;;;19.59
54306;BMP280;64314;45.188;5.712;2022-11-20T07:37:27;99285.94;;;19.62
54306;BMP280;64314;45.188;5.712;2022-11-20T07:39:53;99291.59;;;19.64
54306;BMP280;64314;45.188;5.712;2022-11-20T07:42:18;99292.53;;;19.66
54306;BMP280;64314;45.188;5.712;2022-11-20T07:44:44;99295.28;;;19.66
54306;BMP280;64314;45.188;5.712;2022-11-20T07:47:09;99290.59;;;19.69
54306;BMP280;64314;45.188;5.712;2022-11-20T07:49:34;99291.34;;;19.69
54306;BMP280;64314;45.188;5.712;2022-11-20T07:52:00;99296.44;;;19.73
54306;BMP280;64314;45.188;5.712;2022-11-20T07:54:25;99291.47;;;19.71
54306;BMP280;64314;45.188;5.712;2022-11-20T07:56:50;99294.53;;;19.75
54306;BMP280;64314;45.188;5.712;2022-11-20T07:59:16;99291.47;;;19.71
54306;BMP280;64314;45.188;5.712;2022-11-20T08:01:42;99285.50;;;19.75
54306;BMP280;64314;45.188;5.712;2022-11-20T08:04:08;99290.63;;;19.78
54306;BMP280;64314;45.188;5.712;2022-11-20T08:06:35;99286.56;;;19.79
54306;BMP280;64314;45.188;5.712;2022-11-20T08:09:01;99286.56;;;19.79
54306;BMP280;64314;45.188;5.712;2022-11-20T08:11:27;99292.75;;;19.80
54306;BMP280;64314;45.188;5.712;2022-11-20T08:14:10;99290.72;;;19.80
54306;BMP280;64314;45.188;5.712;2022-11-20T08:16:40;99295.13;;;19.83
54306;BMP280;64314;45.188;5.712;2022-11-20T08:19:06;99300.06;;;19.85
54306;BMP280;64314;45.188;5.712;2022-11-20T08:21:31;99297.59;;;19.89
54306;BMP280;64314;45.188;5.712;2022-11-20T08:23:57;99292.50;;;19.85
54306;BMP280;64314;45.188;5.712;2022-11-20T08:26:24;99299.63;;;19.88
54306;BMP280;64314;45.188;5.712;2022-11-20T08:28:52;99301.09;;;19.89
54306;BMP280;64314;45.188;5.712;2022-11-20T08:31:18;99306.47;;;19.87
54306;BMP280;64314;45.188;5.712;2022-11-20T08:33:43;99306.78;;;19.82
54306;BMP280;64314;45.188;5.712;2022-11-20T08:36:10;99301.06;;;19.80
54306;BMP280;64314;45.188;5.712;2022-11-20T08:38:35;99291.91;;;19.77
54306;BMP280;64314;45.188;5.712;2022-11-20T08:41:03;99299.66;;;19.79
54306;BMP280;64314;45.188;5.712;2022-11-20T08:43:47;99298.19;;;19.78
54306;BMP280;64314;45.188;5.712;2022-11-20T08:46:13;99300.38;;;19.79
54306;BMP280;64314;45.188;5.712;2022-11-20T08:48:38;99297.75;;;19.81
54306;BMP280;64314;45.188;5.712;2022-11-20T08:51:04;99290.00;;;19.80
54306;BMP280;64314;45.188;5.712;2022-11-20T08:53:30;99294.41;;;19.83
54306;BMP280;64314;45.188;5.712;2022-11-20T08:55:57;99301.97;;;19.82
54306;BMP280;64314;45.188;5.712;2022-11-20T08:58:23;99290.91;;;19.82
54306;BMP280;64314;45.188;5.712;2022-11-20T09:00:49;99295.81;;;19.84
54306;BMP280;64314;45.188;5.712;2022-11-20T09:03:14;99292.19;;;19.81
54306;BMP280;64314;45.188;5.712;2022-11-20T09:05:40;99286.66;;;19.81
54306;BMP280;64314;45.188;5.712;2022-11-20T09:08:05;99295.81;;;19.84
54306;BMP280;64314;45.188;5.712;2022-11-20T09:10:31;99293.06;;;19.84
54306;BMP280;64314;45.188;5.712;2022-11-20T09:12:57;99301.97;;;19.82
54306;BMP280;64314;45.188;5.712;2022-11-20T09:15:24;99295.81;;;19.84
54306;BMP280;64314;45.188;5.712;2022-11-20T09:17:57;99303.56;;;19.85
54306;BMP280;64314;45.188;5.712;2022-11-20T09:20:24;99302.09;;;19.84
54306;BMP280;64314;45.188;5.712;2022-11-20T09:22:50;99303.72;;;19.87
54306;BMP280;64314;45.188;5.712;2022-11-20T09:25:16;99297.88;;;19.83
54306;BMP280;64314;45.188;5.712;2022-11-20T09:27:41;99315.38;;;19.86
54306;BMP280;64314;45.188;5.712;2022-11-20T09:30:10;99303.28;;;19.81
54306;BMP280;64314;45.188;5.712;2022-11-20T09:32:36;99304.00;;;19.82
54306;BMP280;64314;45.188;5.712;2022-11-20T09:35:01;99310.28;;;19.82
54306;BMP280;64314;45.188;5.712;2022-11-20T09:37:27;99314.34;;;19.81
54306;BMP280;64314;45.188;5.712;2022-11-20T09:39:53;99317.66;;;19.80
54306;BMP280;64314;45.188;5.712;2022-11-20T09:45:23;99324.97;;;19.75
54306;BMP280;64314;45.188;5.712;2022-11-20T09:56:22;99337.19;;;19.72
54306;BMP280;64314;45.188;5.712;2022-11-20T09:58:50;99332.22;;;19.71
54306;BMP280;64314;45.188;5.712;2022-11-20T10:01:23;99330.50;;;19.66
54306;BMP280;64314;45.188;5.712;2022-11-20T10:03:56;99330.78;;;19.70
54306;BMP280;64314;45.188;5.712;2022-11-20T10:09:03;99334.13;;;19.68
54306;BMP280;64314;45.188;5.712;2022-11-20T10:20:47;99337.19;;;19.63
54306;BMP280;64314;45.188;5.712;2022-11-20T10:26:17;99347.66;;;19.64
54306;BMP280;64314;45.188;5.712;2022-11-20T10:29:04;99347.66;;;19.64
54306;BMP280;64314;45.188;5.712;2022-11-20T10:31:35;99339.81;;;19.61
54306;BMP280;64314;45.188;5.712;2022-11-20T10:34:07;99343.88;;;19.60
54306;BMP280;64314;45.188;5.712;2022-11-20T10:36:43;99339.06;;;19.60
54306;BMP280;64314;45.188;5.712;2022-11-20T10:39:28;99343.75;;;19.58
54306;BMP280;64314;45.188;5.712;2022-11-20T10:41:56;99345.78;;;19.57
54306;BMP280;64314;45.188;5.712;2022-11-20T10:44:26;99348.38;;;19.55
54306;BMP280;64314;45.188;5.712;2022-11-20T10:47:18;99343.59;;;19.56
54306;BMP280;64314;45.188;5.712;2022-11-20T10:49:53;99340.09;;;19.55
54306;BMP280;64314;45.188;5.712;2022-11-20T10:55:30;99339.63;;;19.49
54306;BMP280;64314;45.188;5.712;2022-11-20T10:58:22;99347.53;;;19.53
54306;BMP280;64314;45.188;5.712;2022-11-20T11:00:50;99339.66;;;19.59
54306;BMP280;64314;45.188;5.712;2022-11-20T11:03:30;99333.53;;;19.60
54306;BMP280;64314;45.188;5.712;2022-11-20T11:08:36;99336.88;;;19.59
54306;BMP280;64314;45.188;5.712;2022-11-20T11:11:23;99326.41;;;19.57
54306;BMP280;64314;45.188;5.712;2022-11-20T11:13:49;99330.19;;;19.52
54306;BMP280;64314;45.188;5.712;2022-11-20T11:16:25;99337.19;;;19.53
54306;BMP280;64314;45.188;5.712;2022-11-20T11:18:51;99339.78;;;19.51
54306;BMP280;64314;45.188;5.712;2022-11-20T11:21:28;99328.28;;;19.55
54306;BMP280;64314;45.188;5.712;2022-11-20T11:24:01;99314.91;;;19.51
54306;BMP280;64314;45.188;5.712;2022-11-20T11:26:36;99324.78;;;19.54
54306;BMP280;64314;45.188;5.712;2022-11-20T11:29:03;99313.44;;;19.50
54306;BMP280;64314;45.188;5.712;2022-11-20T11:31:32;99297.25;;;19.46
54306;BMP280;64314;45.188;5.712;2022-11-20T11:34:12;99291.03;;;19.46
54306;BMP280;64314;45.188;5.712;2022-11-20T11:36:38;99277.06;;;19.44
54306;BMP280;64314;45.188;5.712;2022-11-20T11:39:18;99289.84;;;19.49
54306;BMP280;64314;45.188;5.712;2022-11-20T11:41:58;99278.50;;;19.45
54306;BMP280;64314;45.188;5.712;2022-11-20T11:44:59;99269.03;;;19.38
54306;BMP280;64314;45.188;5.712;2022-11-20T11:47:34;99262.19;;;19.39
54306;BMP280;64314;45.188;5.712;2022-11-20T11:50:47;99262.19;;;19.39
54306;BMP280;64314;45.188;5.712;2022-11-20T11:53:15;99248.66;;;19.43
54306;BMP280;64314;45.188;5.712;2022-11-20T11:56:09;99247.22;;;19.42
54306;BMP280;64314;45.188;5.712;2022-11-20T11:58:57;99237.16;;;19.37
54306;BMP280;64314;45.188;5.712;2022-11-20T12:01:37;99232.91;;;19.36
54306;BMP280;64314;45.188;5.712;2022-11-20T12:04:42;99232.91;;;19.36
54306;BMP280;64314;45.188;5.712;2022-11-20T12:07:39;99223.47;;;19.39
54306;BMP280;64314;45.188;5.712;2022-11-20T12:10:20;99233.81;;;19.39
54306;BMP280;64314;45.188;5.712;2022-11-20T12:13:01;99221.16;;;19.36
54306;BMP280;64314;45.188;5.712;2022-11-20T12:15:31;99220.56;;;19.37
54306;BMP280;64314;45.188;5.712;2022-11-20T12:18:02;99225.66;;;19.41
54306;BMP280;64314;45.188;5.712;2022-11-20T12:20:38;99211.72;;;19.39
54306;BMP280;64314;45.188;5.712;2022-11-20T12:23:50;99216.50;;;19.38
54306;BMP280;64314;45.188;5.712;2022-11-20T12:26:05;99193.78;;;19.30
54306;BMP280;64314;45.188;5.712;2022-11-20T12:28:53;99183.47;;;19.31
54306;BMP280;64314;45.188;5.712;2022-11-20T12:37:36;99175.91;;;19.31
54306;BMP280;64314;45.188;5.712;2022-11-20T12:40:35;99169.50;;;19.29
54306;BMP280;64314;45.188;5.712;2022-11-20T12:43:11;99162.94;;;19.34
54306;BMP280;64314;45.188;5.712;2022-11-20T12:46:42;99162.94;;;19.34
54306;BMP280;64314;45.188;5.712;2022-11-20T12:50:05;99148.25;;;19.31
54306;BMP280;64314;45.188;5.712;2022-11-20T13:08:24;99127.13;;;19.26
54306;BMP280;64314;45.188;5.712;2022-11-20T13:11:18;99127.28;;;19.28
54306;BMP280;64314;45.188;5.712;2022-11-20T13:20:15;99138.50;;;19.30
54306;BMP280;64314;45.188;5.712;2022-11-20T13:23:02;99145.16;;;19.27
54306;BMP280;64314;45.188;5.712;2022-11-20T13:25:33;99128.28;;;19.23
54306;BMP280;64314;45.188;5.712;2022-11-20T13:32:19;99126.56;;;19.28
54306;BMP280;64314;45.188;5.712;2022-11-20T13:45:30;99142.13;;;19.23
54306;BMP280;64314;45.188;5.712;2022-11-20T13:48:45;99136.59;;;19.23
54306;BMP280;64314;45.188;5.712;2022-11-20T13:51:51;99136.59;;;19.23
54306;BMP280;64314;45.188;5.712;2022-11-20T14:00:24;99123.66;;;19.26
54306;BMP280;64314;45.188;5.712;2022-11-20T14:05:29;99138.50;;;19.30
54306;BMP280;64314;45.188;5.712;2022-11-20T14:07:58;99142.09;;;19.33
54306;BMP280;64314;45.188;5.712;2022-11-20T14:10:28;99144.16;;;19.32
54306;BMP280;64314;45.188;5.712;2022-11-20T14:12:54;99147.63;;;19.33
54306;BMP280;64314;45.188;5.712;2022-11-20T14:15:31;99143.44;;;19.32
54306;BMP280;64314;45.188;5.712;2022-11-20T14:18:11;99126.00;;;19.29
54306;BMP280;64314;45.188;5.712;2022-11-20T14:20:37;99130.94;;;19.31
54306;BMP280;64314;45.188;5.712;2022-11-20T14:23:03;99131.53;;;19.29
54306;BMP280;64314;45.188;5.712;2022-11-20T14:25:30;99128.03;;;19.29
54306;BMP280;64314;45.188;5.712;2022-11-20T14:28:01;99121.03;;;19.28
54306;BMP280;64314;45.188;5.712;2022-11-20T14:33:01;99123.66;;;19.26
54306;BMP280;64314;45.188;5.712;2022-11-20T14:35:30;99116.81;;;19.27
54306;BMP280;64314;45.188;5.712;2022-11-20T14:38:00;99128.47;;;19.25
54306;BMP280;64314;45.188;5.712;2022-11-20T14:40:29;99143.88;;;19.28
54306;BMP280;64314;45.188;5.712;2022-11-20T14:42:56;99142.13;;;19.23
54306;BMP280;64314;45.188;5.712;2022-11-20T14:45:22;99137.19;;;19.22
54306;BMP280;64314;45.188;5.712;2022-11-20T14:47:48;99132.53;;;19.24
54306;BMP280;64314;45.188;5.712;2022-11-20T14:50:22;99128.28;;;19.23
54306;BMP280;64314;45.188;5.712;2022-11-20T14:52:59;99117.22;;;19.23
54306;BMP280;64314;45.188;5.712;2022-11-20T14:55:38;99112.63;;;19.26
54306;BMP280;64314;45.188;5.712;2022-11-20T14:58:06;99099.66;;;19.19
54306;BMP280;64314;45.188;5.712;2022-11-20T15:00:33;99109.84;;;19.26
54306;BMP280;64314;45.188;5.712;2022-11-20T15:02:59;99099.06;;;19.20
54306;BMP280;64314;45.188;5.712;2022-11-20T15:05:45;99105.63;;;19.15
54306;BMP280;64314;45.188;5.712;2022-11-20T15:08:11;99110.69;;;19.19
54306;BMP280;64314;45.188;5.712;2022-11-20T15:10:37;99106.91;;;19.14
54306;BMP280;64314;45.188;5.712;2022-11-20T15:13:12;99117.84;;;19.12
54306;BMP280;64314;45.188;5.712;2022-11-20T15:15:43;99130.78;;;19.19
54306;BMP280;64314;45.188;5.712;2022-11-20T15:18:15;99128.63;;;19.18
54306;BMP280;64314;45.188;5.712;2022-11-20T15:20:44;99139.66;;;19.18
54306;BMP280;64314;45.188;5.712;2022-11-20T15:23:16;99137.19;;;19.12
54306;BMP280;64314;45.188;5.712;2022-11-20T15:25:46;99145.75;;;19.16
54306;BMP280;64314;45.188;5.712;2022-11-20T15:30:40;99126.59;;;19.09
54306;BMP280;64314;45.188;5.712;2022-11-20T15:33:08;99130.94;;;19.12
54306;BMP280;64314;45.188;5.712;2022-11-20T15:35:34;99127.88;;;19.08
54306;BMP280;64314;45.188;5.712;2022-11-20T15:37:59;99142.00;;;19.12
54306;BMP280;64314;45.188;5.712;2022-11-20T15:40:25;99140.66;;;19.13
54306;BMP280;64314;45.188;5.712;2022-11-20T15:42:53;99139.34;;;19.14
54306;BMP280;64314;45.188;5.712;2022-11-20T15:45:38;99136.47;;;19.12
54306;BMP280;64314;45.188;5.712;2022-11-20T15:48:29;99147.06;;;19.15
54306;BMP280;64314;45.188;5.712;2022-11-20T15:53:33;99153.16;;;19.14
54306;BMP280;64314;45.188;5.712;2022-11-20T15:55:58;99155.94;;;19.14